Time;durP1;ratioP1;P1;durP2;ratioP2;P2;SDS_P1;SDS_P2;PMS_P1;PMS_P2;Temp;Humidity;BMP_temperature;BMP_pressure;BME280_temperature;BME280_humidity;BME280_pressure;Samples;Min_cycle;Max_cycle;Signal;HPM_P1;HPM_P2
2022/06/14 00:02:13;;;;;;;4.62;2.90;;;;;;;22.82;46.34;99624.08;1646197;86;21090;-59
2022/06/14 00:04:42;;;;;;;6.28;2.90;;;;;;;22.78;46.52;99618.23;1668519;86;21486;-59
2022/06/14 00:07:11;;;;;;;7.47;2.85;;;;;;;22.70;46.84;99612.44;1668506;86;21485;-59
2022/06/14 00:09:42;;;;;;;4.90;2.83;;;;;;;22.62;47.03;99615.31;1668440;86;21015;-58
2022/06/14 00:12:12;;;;;;;4.65;3.10;;;;;;;22.56;47.14;99617.06;1668647;86;21351;-58
2022/06/14 00:14:42;;;;;;;4.30;2.90;;;;;;;22.57;47.22;99613.14;1668248;86;21034;-60
2022/06/14 00:17:10;;;;;;;4.25;3.00;;;;;;;22.55;47.27;99607.85;1668470;86;21474;-59
2022/06/14 00:19:40;;;;;;;3.77;2.77;;;;;;;22.51;47.42;99611.53;1679721;83;21495;-58
2022/06/14 00:22:10;;;;;;;5.40;2.90;;;;;;;22.38;47.74;99606.92;1723568;83;21482;-59
2022/06/14 00:24:40;;;;;;;3.35;2.90;;;;;;;22.34;48.02;99599.43;1723823;83;21488;-60
2022/06/14 00:27:09;;;;;;;3.27;2.98;;;;;;;22.31;48.11;99603.64;1723833;83;21015;-61
2022/06/14 00:29:38;;;;;;;7.33;3.15;;;;;;;22.33;48.27;99604.18;1723717;83;21681;-60
2022/06/14 00:32:08;;;;;;;5.55;3.15;;;;;;;22.34;48.31;99604.45;1723553;83;21565;-59
2022/06/14 00:34:39;;;;;;;4.45;3.00;;;;;;;22.35;48.33;99600.53;1723655;83;21020;-60
2022/06/14 00:37:17;;;;;;;5.35;3.00;;;;;;;22.35;48.29;99596.34;1723576;83;21483;-58
2022/06/14 00:39:47;;;;;;;4.08;3.08;;;;;;;22.35;48.39;99595.52;1723659;83;21068;-60
2022/06/14 00:42:20;;;;;;;4.60;2.98;;;;;;;22.30;48.54;99596.96;1701013;83;21051;-60
2022/06/14 00:45:11;;;;;;;3.50;3.08;;;;;;;22.26;48.64;99586.95;1723851;83;21098;-59
2022/06/14 00:47:45;;;;;;;5.60;3.40;;;;;;;22.27;48.67;99587.78;1720623;83;21478;-60
2022/06/14 00:50:31;;;;;;;4.90;3.12;;;;;;;22.21;48.76;99588.40;1721484;81;21031;-60
2022/06/14 00:53:11;;;;;;;5.97;3.17;;;;;;;22.19;48.86;99592.61;1723597;83;21031;-58
2022/06/14 00:55:46;;;;;;;5.55;3.40;;;;;;;22.17;48.95;99594.30;1723565;83;21509;-61
2022/06/14 00:58:26;;;;;;;4.33;3.35;;;;;;;22.13;49.08;99585.68;1723700;83;21435;-58
2022/06/14 01:01:01;;;;;;;6.10;3.33;;;;;;;22.13;49.17;99586.25;1723053;83;21075;-58
2022/06/14 01:03:39;;;;;;;4.08;3.22;;;;;;;22.11;49.27;99582.36;1723359;83;21440;-59
2022/06/14 01:06:30;;;;;;;5.17;3.10;;;;;;;22.07;49.40;99583.20;1723763;83;21031;-59
2022/06/14 01:09:07;;;;;;;6.25;3.20;;;;;;;22.01;49.59;99580.16;1723521;83;21066;-59
2022/06/14 01:11:48;;;;;;;7.20;3.40;;;;;;;21.93;49.71;99583.02;1723522;83;21031;-59
2022/06/14 01:14:23;;;;;;;5.37;3.05;;;;;;;21.81;49.88;99570.84;1668357;86;21014;-60
2022/06/14 01:16:52;;;;;;;4.58;3.05;;;;;;;21.76;50.27;99574.24;1668525;86;21030;-61
2022/06/14 01:19:24;;;;;;;6.03;3.00;;;;;;;21.74;50.44;99580.67;1668284;86;22182;-59
2022/06/14 01:22:11;;;;;;;4.78;2.83;;;;;;;21.70;50.54;99576.24;1668268;86;21082;-59
2022/06/14 01:24:41;;;;;;;5.83;2.90;;;;;;;21.67;50.57;99577.39;1668024;85;21087;-60
2022/06/14 01:27:16;;;;;;;4.22;2.95;;;;;;;21.60;50.79;99582.46;1668326;86;21070;-59
2022/06/14 01:29:52;;;;;;;3.92;2.90;;;;;;;21.55;50.95;99576.36;1668355;86;21482;-59
2022/06/14 01:32:21;;;;;;;5.30;3.30;;;;;;;21.55;51.07;99576.36;1692593;83;21479;-59
2022/06/14 01:34:53;;;;;;;4.65;3.40;;;;;;;21.54;51.09;99578.88;1723508;83;21035;-58
2022/06/14 01:37:22;;;;;;;4.90;3.40;;;;;;;21.53;51.17;99581.39;1724893;83;21494;-59
2022/06/14 01:39:51;;;;;;;3.95;2.87;;;;;;;21.51;51.30;99579.46;1723529;83;21055;-59
2022/06/14 01:42:43;;;;;;;6.53;3.08;;;;;;;21.44;51.44;99573.34;1723831;83;21003;-60
2022/06/14 01:45:30;;;;;;;4.22;3.20;;;;;;;21.43;51.60;99573.91;1696519;82;21015;-60
2022/06/14 01:48:31;;;;;;;4.92;3.70;;;;;;;21.43;51.83;99567.50;1723935;83;21035;-60
2022/06/14 01:54:14;;;;;;;4.17;3.22;;;;;;;21.32;52.34;99568.69;1723360;83;21535;-59
2022/06/14 01:57:02;;;;;;;5.80;3.40;;;;;;;21.27;52.54;99562.59;1723632;83;21050;-60
2022/06/14 02:00:04;;;;;;;5.92;3.65;;;;;;;21.24;52.72;99564.56;1723687;83;21435;-59
2022/06/14 02:05:55;;;;;;;5.67;3.50;;;;;;;21.20;53.22;99559.27;1668210;83;21044;-60
2022/06/14 02:08:25;;;;;;;4.95;3.72;;;;;;;21.16;53.35;99557.61;1723781;83;21066;-59
2022/06/14 02:11:11;;;;;;;3.95;3.52;;;;;;;21.17;53.51;99556.49;1723450;83;21497;-60
2022/06/14 02:13:50;;;;;;;5.58;3.72;;;;;;;21.17;53.59;99559.84;1723696;83;21510;-58
2022/06/14 02:16:40;;;;;;;9.78;3.90;;;;;;;21.18;53.67;99560.94;1724983;83;21090;-60
2022/06/14 02:19:16;;;;;;;9.05;3.85;;;;;;;21.19;53.80;99560.38;1723472;83;21023;-59
2022/06/14 02:21:50;;;;;;;5.30;3.72;;;;;;;21.16;53.99;99557.61;1723440;83;21491;-59
2022/06/14 02:24:26;;;;;;;6.60;3.85;;;;;;;21.14;54.07;99559.86;1723626;83;21550;-59
2022/06/14 02:27:03;;;;;;;4.95;4.17;;;;;;;21.09;54.17;99560.44;1723676;83;21110;-58
2022/06/14 02:29:55;;;;;;;8.63;4.00;;;;;;;21.07;54.20;99562.12;1716690;83;21499;-59
2022/06/14 02:32:30;;;;;;;4.65;3.60;;;;;;;21.05;54.32;99562.97;1698157;83;21596;-59
2022/06/14 02:35:12;;;;;;;7.20;3.80;;;;;;;20.99;54.49;99563.29;1723798;83;21070;-60
2022/06/14 02:37:54;;;;;;;5.60;3.62;;;;;;;20.97;54.92;99558.56;1723791;83;21035;-59
2022/06/14 02:40:37;;;;;;;4.78;3.70;;;;;;;20.95;55.04;99561.64;1723566;83;21098;-59
2022/06/14 02:43:20;;;;;;;10.48;4.35;;;;;;;20.93;55.17;99561.65;1723713;83;21026;-59
2022/06/14 02:46:03;;;;;;;10.38;4.80;;;;;;;20.89;55.30;99565.56;1723923;83;20999;-59
2022/06/14 02:48:38;;;;;;;7.53;3.98;;;;;;;20.86;55.55;99563.36;1723633;83;21560;-58
2022/06/14 02:51:23;;;;;;;7.90;3.83;;;;;;;20.85;55.52;99554.73;1723347;83;21463;-59
2022/06/14 02:54:14;;;;;;;8.15;3.85;;;;;;;20.89;55.29;99566.95;1723942;83;21026;-60
2022/06/14 02:57:13;;;;;;;7.03;3.70;;;;;;;20.92;54.91;99556.64;1723608;83;21071;-59
2022/06/14 02:59:54;;;;;;;11.05;3.90;;;;;;;20.95;54.61;99555.23;1640764;87;21075;-58
2022/06/14 03:02:34;;;;;;;4.05;3.40;;;;;;;20.96;54.63;99545.77;1641014;87;21529;-59
2022/06/14 03:05:40;;;;;;;6.92;3.45;;;;;;;20.98;54.67;99545.75;1641096;87;21138;-59
2022/06/14 03:08:17;;;;;;;5.78;3.55;;;;;;;20.97;54.80;99541.30;1641220;87;21071;-60
2022/06/14 03:10:52;;;;;;;4.75;3.35;;;;;;;21.03;53.58;99534.58;1641118;87;21491;-58
2022/06/14 03:13:26;;;;;;;4.17;3.08;;;;;;;21.11;53.15;99531.73;1632840;87;21082;-58
2022/06/14 03:16:00;;;;;;;6.58;3.30;;;;;;;21.23;52.19;99534.20;1640751;87;21077;-60
2022/06/14 03:18:50;;;;;;;6.83;3.92;;;;;;;21.31;51.77;99526.06;1701989;83;21589;-59
2022/06/14 03:21:30;;;;;;;10.20;3.00;;;;;;;21.40;52.02;99535.47;1723784;83;21035;-59
2022/06/14 03:24:20;;;;;;;6.15;3.27;;;;;;;21.48;51.04;99538.23;1723625;83;21074;-58
2022/06/14 03:27:09;;;;;;;5.33;3.10;;;;;;;21.58;50.59;99525.60;1723783;83;21416;-59
2022/06/14 03:29:47;;;;;;;3.30;2.70;;;;;;;21.69;49.73;99518.81;1723523;83;21106;-59
2022/06/14 03:32:33;;;;;;;4.37;2.80;;;;;;;21.80;49.33;99527.35;1723889;83;21419;-60
2022/06/14 03:35:08;;;;;;;5.80;3.50;;;;;;;21.91;48.93;99532.84;1723562;83;21095;-59
2022/06/14 03:37:37;;;;;;;6.05;3.10;;;;;;;21.99;48.71;99553.12;1722812;82;21023;-61
2022/06/14 03:40:15;;;;;;;7.75;3.47;;;;;;;22.04;49.00;99579.04;1723814;83;21026;-59
2022/06/14 03:42:45;;;;;;;3.40;2.60;;;;;;;22.07;49.28;99586.83;1723564;83;21038;-59
2022/06/14 03:45:18;;;;;;;4.35;2.90;;;;;;;22.14;49.14;99585.12;1723774;83;21501;-59
2022/06/14 03:47:47;;;;;;;6.47;3.22;;;;;;;22.21;48.74;99583.38;1723661;83;21054;-60
2022/06/14 03:50:36;;;;;;;8.38;3.70;;;;;;;22.22;48.54;99590.63;1723866;83;21038;-59
2022/06/14 03:53:22;;;;;;;5.17;3.75;;;;;;;22.20;48.58;99583.11;1723769;83;21479;-59
2022/06/14 03:56:11;;;;;;;6.00;3.60;;;;;;;22.17;48.65;99573.37;1723518;83;21094;-58
2022/06/14 03:59:09;;;;;;;8.70;4.53;;;;;;;22.19;48.71;99587.03;1723935;83;21466;-59
2022/06/14 04:01:48;;;;;;;7.03;4.30;;;;;;;22.18;48.70;99584.80;1723730;83;21030;-58
2022/06/14 04:04:41;;;;;;;8.98;4.42;;;;;;;22.13;48.83;99587.64;1724101;83;21049;-59
2022/06/14 04:07:35;;;;;;;14.93;5.15;;;;;;;22.09;49.00;99585.97;1723615;83;21007;-59
2022/06/14 04:10:30;;;;;;;7.62;4.60;;;;;;;22.02;49.29;99607.77;1723892;83;21510;-59
2022/06/14 04:13:06;;;;;;;7.78;5.10;;;;;;;21.98;49.62;99612.83;1723975;83;21019;-59
2022/06/14 04:16:00;;;;;;;9.98;7.37;;;;;;;21.90;49.88;99625.44;1723746;83;21039;-60
2022/06/14 04:19:08;;;;;;;9.85;5.55;;;;;;;21.80;50.29;99629.14;1723732;83;21066;-59
2022/06/14 04:22:07;;;;;;;11.35;6.30;;;;;;;21.77;50.76;99640.05;1723813;83;21079;-59
2022/06/14 04:25:02;;;;;;;10.58;6.05;;;;;;;21.76;51.09;99643.40;1723568;83;21038;-60
2022/06/14 04:27:54;;;;;;;14.07;5.72;;;;;;;21.81;51.09;99660.66;1723916;83;21491;-60
2022/06/14 04:30:41;;;;;;;15.85;6.35;;;;;;;21.82;51.15;99658.14;1701814;83;21058;-60
2022/06/14 04:33:25;;;;;;;14.00;5.95;;;;;;;21.71;51.45;99668.53;1726399;83;21458;-60
2022/06/14 04:36:02;;;;;;;12.65;5.75;;;;;;;21.58;51.96;99676.14;1726621;83;21086;-59
2022/06/14 04:38:43;;;;;;;;;;;;;;;21.56;52.18;99691.48;1728997;83;21046;-58
2022/06/14 04:41:35;;;;;;;8.23;4.80;;;;;;;21.53;52.40;99693.45;1726592;83;20473;-59
2022/06/14 04:44:23;;;;;;;12.88;5.37;;;;;;;21.51;52.84;99703.50;1726420;83;21489;-60
2022/06/14 04:47:02;;;;;;;9.28;5.30;;;;;;;21.40;53.27;99728.33;1726365;83;21487;-60
2022/06/14 04:49:44;;;;;;;10.23;5.03;;;;;;;21.23;53.91;99732.03;1723665;83;21051;-60
2022/06/14 04:52:30;;;;;;;9.55;4.50;;;;;;;21.12;54.26;99736.20;1726372;83;21031;-60
2022/06/14 04:55:09;;;;;;;9.98;4.50;;;;;;;21.05;54.71;99733.45;1726624;83;21474;-61
2022/06/14 04:57:46;;;;;;;9.60;4.20;;;;;;;20.96;55.11;99750.46;1726389;83;21023;-58
2022/06/14 05:00:27;;;;;;;16.47;4.97;;;;;;;20.78;55.80;99733.76;1726577;83;21560;-61
2022/06/14 05:03:20;;;;;;;10.10;4.25;;;;;;;20.62;56.53;99738.52;1726424;83;21078;-59
2022/06/14 05:06:24;;;;;;;21.35;4.75;;;;;;;20.48;57.10;99733.23;1726476;83;21026;-60
2022/06/14 05:09:06;;;;;;;10.15;4.15;;;;;;;20.34;57.69;99737.11;1726468;83;21050;-59
2022/06/14 05:12:03;;;;;;;7.90;4.10;;;;;;;20.21;58.32;99740.44;1686978;84;21040;-58
2022/06/14 05:14:55;;;;;;;10.35;4.05;;;;;;;20.12;58.63;99745.69;1686852;85;21023;-60
2022/06/14 05:17:40;;;;;;;8.90;4.12;;;;;;;20.11;58.85;99752.92;1687073;85;21506;-61
2022/06/14 05:20:37;;;;;;;7.30;3.37;;;;;;;20.11;59.07;99772.39;1687069;85;21496;-61
2022/06/14 05:23:27;;;;;;;10.15;3.70;;;;;;;20.07;59.00;99769.88;1670471;85;21649;-60
2022/06/14 05:26:03;;;;;;;7.75;3.40;;;;;;;20.02;59.35;99771.27;1686845;85;21112;-60
2022/06/14 05:28:49;;;;;;;7.12;2.90;;;;;;;19.98;59.39;99776.54;1620423;84;21072;-60
2022/06/14 05:32:10;;;;;;;4.97;2.80;;;;;;;19.93;59.45;99794.05;1694037;84;21060;-60
2022/06/14 05:35:22;;;;;;;6.95;2.80;;;;;;;19.93;59.63;99802.39;1700924;84;21059;-59
2022/06/14 05:38:11;;;;;;;8.85;3.08;;;;;;;19.98;59.54;99787.66;1700733;84;21079;-59
2022/06/14 05:41:10;;;;;;;13.93;2.85;;;;;;;20.00;59.41;99809.08;1700828;84;21516;-60
2022/06/14 05:43:56;;;;;;;4.78;2.22;;;;;;;19.96;58.73;99809.34;1700890;84;21057;-60
2022/06/14 05:46:42;;;;;;;4.67;1.85;;;;;;;19.86;58.86;99807.38;1700660;84;21091;-59
2022/06/14 05:49:24;;;;;;;5.78;2.15;;;;;;;19.87;58.97;99799.31;1695543;84;21059;-59
2022/06/14 05:52:01;;;;;;;3.65;2.60;;;;;;;20.01;58.75;99809.91;1701068;84;21036;-60
2022/06/14 05:54:43;;;;;;;6.03;2.12;;;;;;;20.05;58.59;99805.47;1701013;84;21087;-60
2022/06/14 05:57:20;;;;;;;2.92;1.57;;;;;;;20.10;58.27;99811.88;1701099;84;21492;-58
2022/06/14 05:59:55;;;;;;;;;;;;;;;20.19;57.95;99833.08;1703350;84;21067;-60
2022/06/14 06:02:52;;;;;;;7.53;2.15;;;;;;;20.15;57.96;99838.88;1701166;84;20223;-59
2022/06/14 06:05:35;;;;;;;8.95;1.98;;;;;;;20.09;57.98;99853.33;1700962;84;21488;-61
2022/06/14 06:08:30;;;;;;;6.87;1.85;;;;;;;20.01;57.93;99858.58;1700778;84;21068;-60
2022/06/14 06:11:04;;;;;;;4.05;2.12;;;;;;;19.99;57.73;99856.63;1655262;84;21541;-61
2022/06/14 06:13:52;;;;;;;4.53;1.90;;;;;;;19.92;57.94;99869.39;1701062;84;21027;-61
2022/06/14 06:16:34;;;;;;;7.20;2.02;;;;;;;19.90;57.93;99861.33;1698537;84;21117;-60
2022/06/14 06:19:25;;;;;;;4.83;2.15;;;;;;;19.86;58.10;99860.20;1700948;84;21020;-61
2022/06/14 06:22:08;;;;;;;3.25;1.72;;;;;;;19.89;58.30;99859.66;1700747;84;21104;-59
2022/06/14 06:24:50;;;;;;;5.42;1.90;;;;;;;19.92;58.96;99862.45;1701129;84;21449;-60
2022/06/14 06:27:24;;;;;;;6.03;1.98;;;;;;;19.98;60.29;99863.30;1700914;84;21472;-60
2022/06/14 06:30:19;;;;;;;3.20;1.52;;;;;;;19.96;61.32;99874.70;1702003;82;21562;-60
2022/06/14 06:32:51;;;;;;;2.02;1.40;;;;;;;19.89;61.83;99886.07;1703885;84;21460;-61
2022/06/14 06:35:20;;;;;;;2.33;1.67;;;;;;;19.69;62.84;99885.14;1703723;84;21484;-60
2022/06/14 06:37:57;;;;;;;4.80;2.35;;;;;;;19.52;63.65;99890.86;1703633;84;20996;-61
2022/06/14 06:40:27;;;;;;;5.22;1.30;;;;;;;19.36;65.15;99901.56;1703734;84;21032;-62
2022/06/14 06:43:01;;;;;;;3.25;1.40;;;;;;;19.21;65.53;99907.29;1703936;84;21452;-61
2022/06/14 06:45:35;;;;;;;5.00;1.50;;;;;;;19.02;66.66;99940.74;1704147;84;21440;-63
2022/06/14 06:48:11;;;;;;;3.80;1.85;;;;;;;18.75;68.08;99962.95;1703859;84;21082;-60
2022/06/14 06:50:50;;;;;;;9.73;2.70;;;;;;;18.47;69.62;99964.00;1703863;83;21016;-65
2022/06/14 06:53:25;;;;;;;4.12;1.95;;;;;;;18.28;71.59;99948.80;1684563;84;21079;-67
2022/06/14 06:56:22;;;;;;;4.92;1.77;;;;;;;18.20;73.90;99949.23;1703634;84;21040;-65
2022/06/14 06:58:58;;;;;;;;;;;;;;;18.16;75.56;99951.68;1706155;84;21424;-64
2022/06/14 07:01:37;;;;;;;2.20;1.50;;;;;;;18.06;76.87;99949.63;1703244;84;20238;-64
2022/06/14 07:07:45;;;;;;;3.25;2.00;;;;;;;17.83;77.74;99956.80;1703881;84;21095;-65
2022/06/14 07:10:31;;;;;;;4.60;2.50;;;;;;;17.71;78.36;99949.14;1703605;84;21297;-64
2022/06/14 07:13:09;;;;;;;3.30;2.20;;;;;;;17.66;79.52;99950.42;1703863;84;21064;-62
2022/06/14 07:15:49;;;;;;;5.80;2.58;;;;;;;17.68;80.44;99956.58;1703502;84;21106;-61
2022/06/14 07:18:29;;;;;;;10.48;5.90;;;;;;;17.75;81.72;99979.41;1703960;84;21523;-62
2022/06/14 07:21:09;;;;;;;2.25;1.90;;;;;;;17.82;82.08;99984.77;1704047;84;21631;-61
2022/06/14 07:24:17;;;;;;;3.15;1.80;;;;;;;17.83;80.96;99986.45;1703809;84;21487;-61
2022/06/14 07:26:52;;;;;;;3.00;1.65;;;;;;;17.80;80.07;99975.32;1703590;84;21075;-60
2022/06/14 07:29:27;;;;;;;4.12;2.08;;;;;;;17.82;79.87;99986.99;1703616;83;21079;-61
2022/06/14 07:32:17;;;;;;;2.77;1.75;;;;;;;17.88;78.96;99986.52;1703606;84;21490;-61
2022/06/14 07:34:48;;;;;;;4.33;2.08;;;;;;;17.88;77.76;99983.20;1702780;83;21052;-61
2022/06/14 07:37:42;;;;;;;4.15;2.10;;;;;;;17.90;77.30;100001.80;1703738;84;21059;-61
2022/06/14 07:40:25;;;;;;;24.35;17.75;;;;;;;17.92;75.93;99994.61;1704143;84;21036;-60
2022/06/14 07:43:13;;;;;;;3.90;2.62;;;;;;;17.94;75.87;100004.34;1703662;84;21059;-61
2022/06/14 07:45:44;;;;;;;3.35;2.02;;;;;;;18.00;76.12;100013.58;1684898;84;21083;-61
2022/06/14 07:48:30;;;;;;;3.00;1.82;;;;;;;18.08;75.45;100006.75;1707026;84;21039;-60
2022/06/14 07:51:07;;;;;;;2.30;1.70;;;;;;;18.14;75.49;100008.49;1703960;84;21055;-61
2022/06/14 07:53:47;;;;;;;2.90;1.87;;;;;;;18.15;73.91;100011.01;1704162;84;21016;-59
2022/06/14 07:56:23;;;;;;;2.42;1.60;;;;;;;18.20;73.00;100003.30;1703629;83;21032;-62
2022/06/14 07:59:05;;;;;;;3.33;1.50;;;;;;;18.26;73.04;100010.63;1703729;84;21267;-61
2022/06/14 08:01:52;;;;;;;3.35;1.50;;;;;;;18.25;69.75;100010.33;1703593;84;21513;-63
2022/06/14 08:04:26;;;;;;;3.02;1.60;;;;;;;18.25;67.60;100008.95;1703984;84;21432;-58
2022/06/14 08:07:03;;;;;;;2.22;1.50;;;;;;;18.27;67.79;100013.69;1696087;84;21079;-60
2022/06/14 08:09:42;;;;;;;2.10;1.67;;;;;;;18.35;67.43;100027.11;1693067;83;21272;-61
2022/06/14 08:12:41;;;;;;;4.67;1.85;;;;;;;18.50;66.17;100020.91;1695305;84;21083;-61
2022/06/14 08:15:23;;;;;;;2.17;1.90;;;;;;;18.75;65.04;100010.68;1705782;83;21110;-59
2022/06/14 08:18:03;;;;;;;3.58;1.55;;;;;;;19.06;65.30;100009.92;1693715;84;21043;-60
2022/06/14 08:20:46;;;;;;;3.85;1.80;;;;;;;19.45;64.89;100020.27;1710077;83;21519;-62
2022/06/14 08:23:37;;;;;;;5.55;1.87;;;;;;;19.80;62.97;100019.75;1708586;83;21105;-60
2022/06/14 08:26:29;;;;;;;4.65;1.92;;;;;;;19.99;59.93;100023.48;1703493;83;21017;-59
2022/06/14 08:29:04;;;;;;;4.12;1.80;;;;;;;20.09;61.07;100013.26;1693812;83;21038;-58
2022/06/14 08:31:48;;;;;;;2.45;1.70;;;;;;;20.38;57.93;100021.22;1718037;83;21552;-59
2022/06/14 08:34:25;;;;;;;6.67;1.55;;;;;;;20.61;57.07;100025.52;1722408;83;21038;-62
2022/06/14 08:37:15;;;;;;;3.02;1.20;;;;;;;20.86;56.14;100016.71;1727401;82;21026;-61
2022/06/14 08:40:04;;;;;;;3.22;1.67;;;;;;;21.04;54.23;100033.46;1749880;81;21045;-62
2022/06/14 08:42:41;;;;;;;3.02;1.30;;;;;;;21.25;53.99;100037.14;1738350;82;21059;-62
2022/06/14 08:45:42;;;;;;;4.28;1.25;;;;;;;21.55;51.52;100051.69;1723067;83;21035;-61
2022/06/14 08:48:43;;;;;;;5.55;1.10;;;;;;;21.76;52.21;100060.33;1690706;85;21078;-60
2022/06/14 08:51:54;;;;;;;2.37;1.27;;;;;;;21.92;48.58;100067.28;1661802;86;21472;-62
2022/06/14 08:55:10;;;;;;;1.62;1.15;;;;;;;21.90;49.25;100052.78;1683892;85;21427;-62
2022/06/14 08:58:18;;;;;;;1.60;1.00;;;;;;;21.97;48.67;100050.53;1655792;85;21383;-62
2022/06/14 09:02:00;;;;;;;1.50;0.95;;;;;;;22.08;49.09;100053.62;1608042;86;21136;-66
2022/06/14 09:05:23;;;;;;;2.77;1.15;;;;;;;22.22;48.03;100044.96;1693415;85;21044;-63
2022/06/14 09:08:28;;;;;;;1.47;1.10;;;;;;;22.29;47.90;100053.87;1722647;83;21027;-62
2022/06/14 09:11:12;;;;;;;1.42;1.10;;;;;;;22.40;46.98;100053.28;1690584;85;21059;-61
2022/06/14 09:13:58;;;;;;;5.90;1.45;;;;;;;22.41;46.90;100057.74;1690817;85;21073;-62
2022/06/14 09:16:50;;;;;;;2.98;1.30;;;;;;;22.42;45.62;100055.23;1690528;83;21470;-62
2022/06/14 09:19:54;;;;;;;4.78;1.60;;;;;;;22.36;45.90;100061.95;1677093;85;21105;-63
2022/06/14 09:22:49;;;;;;;2.27;1.52;;;;;;;22.30;45.84;100065.31;1710049;83;21079;-63
2022/06/14 09:26:10;;;;;;;2.98;1.57;;;;;;;22.26;45.97;100060.58;1681767;85;21099;-61
2022/06/14 09:29:00;;;;;;;4.40;1.57;;;;;;;22.19;45.33;100065.62;1710345;83;21095;-62
2022/06/14 09:32:00;;;;;;;5.30;1.60;;;;;;;22.00;45.61;100069.50;1681763;85;21048;-62
2022/06/14 09:34:54;;;;;;;2.30;1.35;;;;;;;21.93;46.49;100067.56;1632054;88;21023;-63
2022/06/14 09:37:43;;;;;;;2.85;1.40;;;;;;;21.83;45.96;100069.80;1633326;88;21078;-65
2022/06/14 09:40:30;;;;;;;1.95;1.20;;;;;;;21.75;46.94;100063.39;1689453;84;21104;-62
2022/06/14 09:43:25;;;;;;;3.52;1.32;;;;;;;21.76;46.43;100071.48;1697066;84;21074;-63
2022/06/14 09:46:30;;;;;;;1.92;1.50;;;;;;;21.77;45.47;100067.58;1696720;84;21497;-63
2022/06/14 09:49:36;;;;;;;1.80;1.40;;;;;;;21.74;45.72;100069.53;1695371;84;21050;-63
2022/06/14 09:52:38;;;;;;;5.37;1.80;;;;;;;21.56;46.51;100081.23;1709430;82;21459;-64
2022/06/14 09:55:47;;;;;;;2.85;1.40;;;;;;;21.41;45.96;100089.00;1725712;83;21012;-62
2022/06/14 09:58:47;;;;;;;2.75;1.37;;;;;;;21.20;45.81;100082.52;1725806;83;21087;-65
2022/06/14 10:01:28;;;;;;;2.58;1.20;;;;;;;21.15;45.58;100081.13;1725578;83;21051;-62
2022/06/14 10:04:23;;;;;;;3.17;1.37;;;;;;;21.14;45.46;100075.27;1725903;83;21064;-60
2022/06/14 10:07:27;;;;;;;2.20;1.20;;;;;;;21.16;44.44;100080.56;1725810;83;21520;-61
2022/06/14 10:10:21;;;;;;;3.22;1.20;;;;;;;21.16;44.27;100080.56;1725733;83;21456;-58
2022/06/14 10:13:08;;;;;;;2.33;1.20;;;;;;;21.12;44.83;100081.67;1726010;83;21080;-59
2022/06/14 10:16:07;;;;;;;2.72;1.50;;;;;;;21.18;45.54;100072.77;1723888;83;21040;-61
2022/06/14 10:19:00;;;;;;;2.25;1.40;;;;;;;21.35;45.19;100081.75;1690233;85;21109;-60
2022/06/14 10:21:37;;;;;;;3.25;1.42;;;;;;;21.51;44.73;100075.66;1629904;88;21035;-61
2022/06/14 10:24:47;;;;;;;4.08;1.60;;;;;;;21.51;44.71;100075.66;1690309;85;21017;-60
2022/06/14 10:30:21;;;;;;;3.90;1.60;;;;;;;21.47;44.69;100078.17;1690427;84;21056;-61
2022/06/14 10:33:17;;;;;;;3.52;1.90;;;;;;;21.54;44.60;100087.66;1701748;84;21444;-60
2022/06/14 10:36:12;;;;;;;4.72;2.00;;;;;;;21.56;44.20;100082.63;1708689;83;21075;-61
2022/06/14 10:39:07;;;;;;;3.75;1.60;;;;;;;21.57;44.32;100064.79;1690136;84;21456;-60
2022/06/14 10:41:41;;;;;;;2.77;1.40;;;;;;;21.60;44.76;100071.20;1690248;83;21463;-60
2022/06/14 10:44:15;;;;;;;2.87;1.50;;;;;;;21.63;44.75;100067.86;1672075;86;21464;-60
2022/06/14 10:47:12;;;;;;;3.25;1.50;;;;;;;21.69;44.80;100068.14;1672174;86;21069;-60
2022/06/14 10:50:12;;;;;;;3.65;1.72;;;;;;;21.75;44.87;100057.26;1645027;87;21069;-59
2022/06/14 10:52:53;;;;;;;2.35;1.67;;;;;;;21.75;44.04;100067.02;1708890;84;21063;-60
2022/06/14 10:56:08;;;;;;;2.95;1.65;;;;;;;21.68;42.90;100053.08;1709041;84;21501;-60
2022/06/14 10:59:04;;;;;;;2.95;1.50;;;;;;;21.62;43.03;100055.59;1708865;84;21395;-59
2022/06/14 11:01:53;;;;;;;2.87;1.87;;;;;;;21.61;43.36;100056.15;1708812;84;21023;-59
2022/06/14 11:04:41;;;;;;;3.35;1.62;;;;;;;21.63;43.61;100043.32;1672319;86;21071;-58
2022/06/14 11:07:29;;;;;;;;;;;;;;;21.63;43.65;100047.50;1711266;84;21056;-59
2022/06/14 11:10:44;;;;;;;3.98;1.90;;;;;;;21.63;42.72;100040.53;1709027;84;20157;-60
2022/06/14 11:13:34;;;;;;;3.55;1.87;;;;;;;21.57;42.92;100049.45;1672298;86;21036;-60
2022/06/14 11:16:50;;;;;;;10.08;8.68;;;;;;;21.60;43.33;100043.32;1713526;83;21411;-60
2022/06/14 11:19:31;;;;;;;4.97;2.00;;;;;;;21.65;43.33;100048.06;1729479;83;21045;-61
2022/06/14 11:22:36;;;;;;;4.15;2.05;;;;;;;21.65;43.78;100060.05;1729442;83;21456;-60
2022/06/14 11:25:38;;;;;;;4.00;1.80;;;;;;;21.67;43.73;100062.00;1729349;83;21075;-59
2022/06/14 11:28:38;;;;;;;5.80;1.80;;;;;;;21.60;43.34;100062.84;1729412;83;21295;-60
2022/06/14 11:31:39;;;;;;;3.25;1.65;;;;;;;21.46;43.33;100062.56;1727562;82;21055;-64
2022/06/14 11:34:22;;;;;;;3.05;1.80;;;;;;;21.44;43.85;100059.73;1721929;83;21064;-60
2022/06/14 11:37:15;;;;;;;3.27;1.87;;;;;;;21.49;43.17;100047.23;1718554;83;21040;-61
2022/06/14 11:40:00;;;;;;;6.92;1.65;;;;;;;21.56;43.56;100050.57;1721973;83;21474;-61
2022/06/14 11:42:48;;;;;;;5.00;1.67;;;;;;;21.66;42.66;100040.81;1685113;83;21534;-61
2022/06/14 11:45:32;;;;;;;3.80;1.62;;;;;;;21.73;42.00;100039.97;1721846;83;21027;-61
2022/06/14 11:48:51;;;;;;;6.30;1.70;;;;;;;21.79;41.77;100043.03;1721920;83;21730;-62
2022/06/14 11:52:02;;;;;;;2.72;1.50;;;;;;;21.73;41.10;100046.94;1678562;84;21022;-62
2022/06/14 11:54:45;;;;;;;3.95;1.60;;;;;;;21.79;41.04;100045.82;1722008;83;21101;-59
2022/06/14 11:57:22;;;;;;;6.60;1.70;;;;;;;21.97;40.73;100032.41;1721853;83;21262;-61
2022/06/14 12:00:16;;;;;;;6.50;1.90;;;;;;;22.11;40.38;100035.78;1722108;83;21056;-61
2022/06/14 12:03:08;;;;;;;2.65;1.60;;;;;;;22.25;40.47;100044.39;1698433;84;21034;-62
2022/06/14 12:06:11;;;;;;;3.95;2.10;;;;;;;22.42;40.55;100044.06;1720128;83;21439;-60
2022/06/14 12:09:16;;;;;;;2.72;1.90;;;;;;;22.55;39.86;100035.07;1722001;83;21104;-58
2022/06/14 12:12:00;;;;;;;3.15;1.60;;;;;;;22.56;39.27;100043.72;1721647;83;21096;-61
2022/06/14 12:15:06;;;;;;;3.65;1.80;;;;;;;22.51;38.48;100049.89;1721716;82;21467;-61
2022/06/14 12:17:43;;;;;;;7.47;2.05;;;;;;;22.37;38.69;100044.91;1727428;82;21093;-60
2022/06/14 12:20:15;;;;;;;3.52;1.72;;;;;;;22.30;37.91;100042.14;1729954;82;21041;-61
2022/06/14 12:22:55;;;;;;;5.25;2.08;;;;;;;22.23;38.15;100044.40;1727765;82;21045;-60
2022/06/14 12:29:05;;;;;;;6.42;1.82;;;;;;;22.24;38.11;100035.75;1676693;85;21541;-59
2022/06/14 12:32:08;;;;;;;5.10;1.90;;;;;;;22.36;37.47;100044.64;1666643;85;21215;-62
2022/06/14 12:34:51;;;;;;;2.35;1.80;;;;;;;22.36;37.52;100051.62;1704982;83;21056;-60
2022/06/14 12:37:38;;;;;;;3.92;1.90;;;;;;;22.29;37.58;100054.43;1746390;82;21088;-61
2022/06/14 12:40:39;;;;;;;5.62;1.77;;;;;;;22.26;38.62;100047.46;1750354;82;21107;-59
2022/06/14 12:43:24;;;;;;;4.50;1.80;;;;;;;22.29;37.76;100048.29;1753761;82;21053;-61
2022/06/14 12:46:05;;;;;;;4.80;1.75;;;;;;;22.23;37.61;100045.80;1753741;82;21051;-61
2022/06/14 12:49:02;;;;;;;4.80;1.87;;;;;;;22.25;37.87;100046.35;1753571;82;20997;-60
2022/06/14 12:51:53;;;;;;;4.78;2.10;;;;;;;22.31;37.31;100035.45;1753800;82;21057;-61
2022/06/14 12:54:46;;;;;;;7.25;2.27;;;;;;;22.31;37.63;100047.45;1753619;82;21036;-61
2022/06/14 12:57:39;;;;;;;3.65;2.05;;;;;;;22.37;37.41;100046.31;1753605;82;20976;-61
2022/06/14 13:00:13;;;;;;;5.53;1.92;;;;;;;22.46;36.77;100047.95;1753417;82;21009;-59
2022/06/14 13:02:56;;;;;;;4.47;2.20;;;;;;;22.39;37.23;100042.67;1753547;82;21016;-60
2022/06/14 13:05:29;;;;;;;4.90;2.00;;;;;;;22.34;36.85;100046.87;1753652;82;21020;-59
2022/06/14 13:08:21;;;;;;;7.37;2.08;;;;;;;22.31;36.81;100044.66;1753799;82;21024;-61
2022/06/14 13:11:25;;;;;;;3.15;2.02;;;;;;;22.29;36.29;100039.08;1689696;85;21463;-62
2022/06/14 13:14:17;;;;;;;6.40;2.00;;;;;;;22.29;36.14;100044.66;1689847;85;21102;-61